Rachel Borchard — V7AT6 — position and weather

sailwx.info

Track history (hours):
 
Tides and Currents Weather Stations Pressure Air Temp Water Temp Dewpoint Dewpoint Depression Visibility Wind Speed Wind Dir Waves Ship Positions

Rachel Borchard

Last reported at 2018-Apr-23 16:23 UTC. Time now 2018-Apr-24 08:41 UTC.
Position N 33°42' E 030°53'.

Length 157 m; draft 7.5 m.

Type: Ship. MMSI: 538005064.

Date/timePositionNaut miles runAvg speedWind from/ knotsBaromVisibWave heightAir tempDewpointWater temp
2018-Apr-23 16:23N 33°42' E 030°53'513.1
2018-Apr-23 16:00N 33°40' E 030°59'713.4
2018-Apr-23 15:30N 33°39' E 031°07'713.7
2018-Apr-23 15:00N 33°38' E 031°15'813.6
2018-Apr-23 14:26N 33°36' E 031°24'613.7
2018-Apr-23 14:00N 33°34' E 031°31'713.8
2018-Apr-23 13:30N 33°33' E 031°39'713.8
2018-Apr-23 12:59N 33°31' E 031°47'713.9
2018-Apr-23 12:31N 33°30' E 031°55'714.0
2018-Apr-23 12:00N 33°28' E 032°03'714.2
2018-Apr-23 11:31N 33°26' E 032°11'714.3
2018-Apr-23 11:00N 33°25' E 032°20'714.3
2018-Apr-23 10:31N 33°23' E 032°28'714.3
2018-Apr-23 10:00N 33°22' E 032°37'714.2
2018-Apr-23 09:30N 33°20' E 032°45'1313.9
2018-Apr-23 08:32N 33°17' E 033°00'113.9
2018-Apr-23 08:27N 33°17' E 033°02'613.6
2018-Apr-23 08:00N 33°15' E 033°09'1113.5
2018-Apr-23 07:12N 33°13' E 033°22'313.3
2018-Apr-23 07:00N 33°12' E 033°25'613.2
2018-Apr-23 06:30N 33°11' E 033°32'2313.2
2018-Apr-23 04:47N 33°06' E 033°59'3113.3
2018-Apr-23 02:29N 32°59' E 034°34'713.8
2018-Apr-23 02:00N 32°57' E 034°42'713.5
2018-Apr-23 01:28N 32°54' E 034°50'10 0.7
2018-Apr-22 11:09N 32°50' E 035°01'1 3.9
2018-Apr-22 10:47N 32°51' E 034°60'3 9.8
2018-Apr-22 10:30N 32°52' E 034°56'713.6
2018-Apr-22 09:59N 32°48' E 034°49'817.8
2018-Apr-22 09:30N 32°40' E 034°46'917.4
2018-Apr-22 09:01N 32°32' E 034°44'917.2
2018-Apr-22 08:31N 32°24' E 034°41'917.3
2018-Apr-22 08:01N 32°15' E 034°38'917.4
2018-Apr-22 07:30N 32°07' E 034°35'1512.6
2018-Apr-22 06:19N 31°52' E 034°38'1 0.1
2018-Apr-21 18:11N 31°51' E 034°38'18213.2
2018-Apr-21 04:25N 34°36' E 033°05'511.2
2018-Apr-21 04:00N 34°39' E 033°02'0 1.0
2018-Apr-21 03:30N 34°39' E 033°01'0 0.0
2018-Apr-21 03:01N 34°39' E 033°01'0 0.0
2018-Apr-21 02:30N 34°39' E 033°01'0 0.0
2018-Apr-21 02:00N 34°39' E 033°01'0 0.0
2018-Apr-21 01:31N 34°39' E 033°01'0 0.0
2018-Apr-21 01:00N 34°39' E 033°01'0 0.0
2018-Apr-21 00:30N 34°39' E 033°01'0 0.0
2018-Apr-21 00:01N 34°39' E 033°01'0 0.0
2018-Apr-20 23:30N 34°39' E 033°01'0 0.0
2018-Apr-20 22:57N 34°39' E 033°01'0 0.0
2018-Apr-20 22:31N 34°39' E 033°01'0 0.0
2018-Apr-20 22:01N 34°39' E 033°01'0 0.0
2018-Apr-20 21:31N 34°39' E 033°01'0 0.0
2018-Apr-20 21:00N 34°39' E 033°01'0 0.0
2018-Apr-20 20:31N 34°39' E 033°01'0 0.0
2018-Apr-20 20:00N 34°39' E 033°01'0 0.0
2018-Apr-20 19:31N 34°39' E 033°01'2 3.2
2018-Apr-20 19:00N 34°39' E 033°03'46716.9
2018-Apr-19 15:22N 37°20' E 024°01'1117.3
2018-Apr-19 14:43N 37°28' E 023°51'417.6
2018-Apr-19 14:30N 37°31' E 023°49'917.5
2018-Apr-19 14:00N 37°38' E 023°43'917.7
2018-Apr-19 13:30N 37°46' E 023°38'816.4
2018-Apr-19 13:01N 37°54' E 023°37'3 5.1
2018-Apr-19 12:25N 37°57' E 023°36'0 0.0
2018-Apr-19 11:55N 37°57' E 023°36'0 0.0
2018-Apr-19 11:28N 37°57' E 023°36'0 0.0
2018-Apr-19 10:58N 37°57' E 023°36'0 0.0
2018-Apr-19 10:25N 37°57' E 023°36'0 0.0
2018-Apr-19 09:55N 37°57' E 023°36'0 0.0
2018-Apr-19 09:28N 37°57' E 023°36'0 0.0
2018-Apr-19 08:58N 37°57' E 023°36'0 0.0
2018-Apr-19 08:25N 37°57' E 023°36'0 0.0
2018-Apr-19 07:58N 37°57' E 023°36'0 0.0
2018-Apr-19 07:25N 37°57' E 023°36'0 0.0
2018-Apr-19 06:52N 37°57' E 023°36'0 0.0
2018-Apr-19 06:25N 37°57' E 023°36'0 0.0
2018-Apr-19 05:58N 37°57' E 023°36'0 0.0
2018-Apr-19 05:28N 37°57' E 023°36'1 1.4
2018-Apr-19 05:00N 37°57' E 023°36'2 4.0
2018-Apr-19 04:30N 37°55' E 023°36'0 0.7
2018-Apr-19 04:00N 37°55' E 023°36'2 4.0
2018-Apr-19 03:30N 37°54' E 023°33'0 0.4
2018-Apr-19 03:00N 37°54' E 023°33'0 0.0
2018-Apr-19 02:30N 37°54' E 023°33'0 0.0
2018-Apr-19 02:00N 37°54' E 023°33'0 0.0
2018-Apr-19 01:30N 37°54' E 023°33'0 0.1
2018-Apr-19 01:00N 37°54' E 023°33'0 0.0
2018-Apr-19 00:30N 37°54' E 023°33'0 0.0
2018-Apr-19 00:00N 37°54' E 023°33'0 0.0
2018-Apr-18 23:30N 37°54' E 023°33'0 0.0
2018-Apr-18 23:00N 37°54' E 023°33'0 0.1
2018-Apr-18 22:27N 37°54' E 023°33'0 0.0
2018-Apr-18 22:00N 37°54' E 023°33'0 0.0
2018-Apr-18 21:30N 37°54' E 023°33'0 0.0
2018-Apr-18 21:00N 37°54' E 023°33'0 0.0
2018-Apr-18 20:27N 37°54' E 023°33'0 0.0
2018-Apr-18 20:00N 37°54' E 023°33'0 0.1
2018-Apr-18 19:30N 37°54' E 023°33'0 0.0
2018-Apr-18 19:00N 37°54' E 023°33'0 0.1
2018-Apr-18 18:30N 37°54' E 023°33'0 0.1
2018-Apr-18 18:00N 37°54' E 023°33'0 0.2
2018-Apr-18 17:30N 37°54' E 023°33'0 0.7
2018-Apr-18 17:00N 37°54' E 023°34'510.4
2018-Apr-18 16:30N 37°51' E 023°39'713.8
2018-Apr-18 16:00N 37°45' E 023°43'36210.1
2018-Apr-17 04:08N 37°47' E 016°05'215.7
2018-Apr-17 04:00N 37°47' E 016°02'816.2
2018-Apr-17 03:30N 37°49' E 015°52'816.7
2018-Apr-17 03:01N 37°52' E 015°42'816.3
2018-Apr-17 02:30N 37°58' E 015°35'816.8
2018-Apr-17 02:00N 38°06' E 015°35'917.3
2018-Apr-17 01:29N 38°15' E 015°37'613.3
2018-Apr-17 01:00N 38°21' E 015°39'816.5
2018-Apr-17 00:31N 38°29' E 015°36'916.2
2018-Apr-16 23:58N 38°37' E 015°32'816.0
2018-Apr-16 23:29N 38°44' E 015°28'916.2
2018-Apr-16 22:57N 38°52' E 015°24'8816.3
2018-Apr-16 17:36N 40°14' E 014°46'316.0
2018-Apr-16 17:26N 40°17' E 014°46'816.1
2018-Apr-16 16:58N 40°25' E 014°45'716.0
2018-Apr-16 16:30N 40°32' E 014°45'5 0.5
2018-Apr-16 05:25N 40°37' E 014°41'716.3
2018-Apr-16 05:00N 40°35' E 014°33'917.8
2018-Apr-16 04:30N 40°33' E 014°22'1216.8
2018-Apr-16 03:47N 40°32' E 014°06'517.6
2018-Apr-16 03:29N 40°33' E 013°59'1118.0
2018-Apr-16 02:52N 40°35' E 013°45'718.0
2018-Apr-16 02:29N 40°37' E 013°36'47316.9
2018-Apr-14 22:32N 40°26' E 003°14'116.7
2018-Apr-14 22:29N 40°26' E 003°13'816.5
2018-Apr-14 21:59N 40°24' E 003°02'1116.3
2018-Apr-14 21:20N 40°22' E 002°48'516.4
2018-Apr-14 21:00N 40°20' E 002°41'  
Track history (hours):
 
Tides and Currents Weather Stations Pressure Air Temp Water Temp Dewpoint Dewpoint Depression Visibility Wind Speed Wind Dir Waves Ship Positions

Rachel Borchard

Last reported at 2018-Apr-23 16:23 UTC. Time now 2018-Apr-24 08:41 UTC.
Position N 33°42' E 030°53'.

Length 157 m; draft 7.5 m.

Type: Ship. MMSI: 538005064.

Date/timePositionNaut miles runAvg speedWind from/ knotsBaromVisibWave heightAir tempDewpointWater temp
2018-Apr-23 16:23N 33°42' E 030°53'513.1
2018-Apr-23 16:00N 33°40' E 030°59'713.4
2018-Apr-23 15:30N 33°39' E 031°07'713.7
2018-Apr-23 15:00N 33°38' E 031°15'813.6
2018-Apr-23 14:26N 33°36' E 031°24'613.7
2018-Apr-23 14:00N 33°34' E 031°31'713.8
2018-Apr-23 13:30N 33°33' E 031°39'713.8
2018-Apr-23 12:59N 33°31' E 031°47'713.9
2018-Apr-23 12:31N 33°30' E 031°55'714.0
2018-Apr-23 12:00N 33°28' E 032°03'714.2
2018-Apr-23 11:31N 33°26' E 032°11'714.3
2018-Apr-23 11:00N 33°25' E 032°20'714.3
2018-Apr-23 10:31N 33°23' E 032°28'714.3
2018-Apr-23 10:00N 33°22' E 032°37'714.2
2018-Apr-23 09:30N 33°20' E 032°45'1313.9
2018-Apr-23 08:32N 33°17' E 033°00'113.9
2018-Apr-23 08:27N 33°17' E 033°02'613.6
2018-Apr-23 08:00N 33°15' E 033°09'1113.5
2018-Apr-23 07:12N 33°13' E 033°22'313.3
2018-Apr-23 07:00N 33°12' E 033°25'613.2
2018-Apr-23 06:30N 33°11' E 033°32'2313.2
2018-Apr-23 04:47N 33°06' E 033°59'3113.3
2018-Apr-23 02:29N 32°59' E 034°34'713.8
2018-Apr-23 02:00N 32°57' E 034°42'713.5
2018-Apr-23 01:28N 32°54' E 034°50'10 0.7
2018-Apr-22 11:09N 32°50' E 035°01'1 3.9
2018-Apr-22 10:47N 32°51' E 034°60'3 9.8
2018-Apr-22 10:30N 32°52' E 034°56'713.6
2018-Apr-22 09:59N 32°48' E 034°49'817.8
2018-Apr-22 09:30N 32°40' E 034°46'917.4
2018-Apr-22 09:01N 32°32' E 034°44'917.2
2018-Apr-22 08:31N 32°24' E 034°41'917.3
2018-Apr-22 08:01N 32°15' E 034°38'917.4
2018-Apr-22 07:30N 32°07' E 034°35'1512.6
2018-Apr-22 06:19N 31°52' E 034°38'1 0.1
2018-Apr-21 18:11N 31°51' E 034°38'18213.2
2018-Apr-21 04:25N 34°36' E 033°05'511.2
2018-Apr-21 04:00N 34°39' E 033°02'0 1.0
2018-Apr-21 03:30N 34°39' E 033°01'0 0.0
2018-Apr-21 03:01N 34°39' E 033°01'0 0.0
2018-Apr-21 02:30N 34°39' E 033°01'0 0.0
2018-Apr-21 02:00N 34°39' E 033°01'0 0.0
2018-Apr-21 01:31N 34°39' E 033°01'0 0.0
2018-Apr-21 01:00N 34°39' E 033°01'0 0.0
2018-Apr-21 00:30N 34°39' E 033°01'0 0.0
2018-Apr-21 00:01N 34°39' E 033°01'0 0.0
2018-Apr-20 23:30N 34°39' E 033°01'0 0.0
2018-Apr-20 22:57N 34°39' E 033°01'0 0.0
2018-Apr-20 22:31N 34°39' E 033°01'0 0.0
2018-Apr-20 22:01N 34°39' E 033°01'0 0.0
2018-Apr-20 21:31N 34°39' E 033°01'0 0.0
2018-Apr-20 21:00N 34°39' E 033°01'0 0.0
2018-Apr-20 20:31N 34°39' E 033°01'0 0.0
2018-Apr-20 20:00N 34°39' E 033°01'0 0.0
2018-Apr-20 19:31N 34°39' E 033°01'2 3.2
2018-Apr-20 19:00N 34°39' E 033°03'46716.9
2018-Apr-19 15:22N 37°20' E 024°01'1117.3
2018-Apr-19 14:43N 37°28' E 023°51'417.6
2018-Apr-19 14:30N 37°31' E 023°49'917.5
2018-Apr-19 14:00N 37°38' E 023°43'917.7
2018-Apr-19 13:30N 37°46' E 023°38'816.4
2018-Apr-19 13:01N 37°54' E 023°37'3 5.1
2018-Apr-19 12:25N 37°57' E 023°36'0 0.0
2018-Apr-19 11:55N 37°57' E 023°36'0 0.0
2018-Apr-19 11:28N 37°57' E 023°36'0 0.0
2018-Apr-19 10:58N 37°57' E 023°36'0 0.0
2018-Apr-19 10:25N 37°57' E 023°36'0 0.0
2018-Apr-19 09:55N 37°57' E 023°36'0 0.0
2018-Apr-19 09:28N 37°57' E 023°36'0 0.0
2018-Apr-19 08:58N 37°57' E 023°36'0 0.0
2018-Apr-19 08:25N 37°57' E 023°36'0 0.0
2018-Apr-19 07:58N 37°57' E 023°36'0 0.0
2018-Apr-19 07:25N 37°57' E 023°36'0 0.0
2018-Apr-19 06:52N 37°57' E 023°36'0 0.0
2018-Apr-19 06:25N 37°57' E 023°36'0 0.0
2018-Apr-19 05:58N 37°57' E 023°36'0 0.0
2018-Apr-19 05:28N 37°57' E 023°36'1 1.4
2018-Apr-19 05:00N 37°57' E 023°36'2 4.0
2018-Apr-19 04:30N 37°55' E 023°36'0 0.7
2018-Apr-19 04:00N 37°55' E 023°36'2 4.0
2018-Apr-19 03:30N 37°54' E 023°33'0 0.4
2018-Apr-19 03:00N 37°54' E 023°33'0 0.0
2018-Apr-19 02:30N 37°54' E 023°33'0 0.0
2018-Apr-19 02:00N 37°54' E 023°33'0 0.0
2018-Apr-19 01:30N 37°54' E 023°33'0 0.1
2018-Apr-19 01:00N 37°54' E 023°33'0 0.0
2018-Apr-19 00:30N 37°54' E 023°33'0 0.0
2018-Apr-19 00:00N 37°54' E 023°33'0 0.0
2018-Apr-18 23:30N 37°54' E 023°33'0 0.0
2018-Apr-18 23:00N 37°54' E 023°33'0 0.1
2018-Apr-18 22:27N 37°54' E 023°33'0 0.0
2018-Apr-18 22:00N 37°54' E 023°33'0 0.0
2018-Apr-18 21:30N 37°54' E 023°33'0 0.0
2018-Apr-18 21:00N 37°54' E 023°33'0 0.0
2018-Apr-18 20:27N 37°54' E 023°33'0 0.0
2018-Apr-18 20:00N 37°54' E 023°33'0 0.1
2018-Apr-18 19:30N 37°54' E 023°33'0 0.0
2018-Apr-18 19:00N 37°54' E 023°33'0 0.1
2018-Apr-18 18:30N 37°54' E 023°33'0 0.1
2018-Apr-18 18:00N 37°54' E 023°33'0 0.2
2018-Apr-18 17:30N 37°54' E 023°33'0 0.7
2018-Apr-18 17:00N 37°54' E 023°34'510.4
2018-Apr-18 16:30N 37°51' E 023°39'713.8
2018-Apr-18 16:00N 37°45' E 023°43'36210.1
2018-Apr-17 04:08N 37°47' E 016°05'215.7
2018-Apr-17 04:00N 37°47' E 016°02'816.2
2018-Apr-17 03:30N 37°49' E 015°52'816.7
2018-Apr-17 03:01N 37°52' E 015°42'816.3
2018-Apr-17 02:30N 37°58' E 015°35'816.8
2018-Apr-17 02:00N 38°06' E 015°35'917.3
2018-Apr-17 01:29N 38°15' E 015°37'613.3
2018-Apr-17 01:00N 38°21' E 015°39'816.5
2018-Apr-17 00:31N 38°29' E 015°36'916.2
2018-Apr-16 23:58N 38°37' E 015°32'816.0
2018-Apr-16 23:29N 38°44' E 015°28'916.2
2018-Apr-16 22:57N 38°52' E 015°24'8816.3
2018-Apr-16 17:36N 40°14' E 014°46'316.0
2018-Apr-16 17:26N 40°17' E 014°46'816.1
2018-Apr-16 16:58N 40°25' E 014°45'716.0
2018-Apr-16 16:30N 40°32' E 014°45'5 0.5
2018-Apr-16 05:25N 40°37' E 014°41'716.3
2018-Apr-16 05:00N 40°35' E 014°33'917.8
2018-Apr-16 04:30N 40°33' E 014°22'1216.8
2018-Apr-16 03:47N 40°32' E 014°06'517.6
2018-Apr-16 03:29N 40°33' E 013°59'1118.0
2018-Apr-16 02:52N 40°35' E 013°45'718.0
2018-Apr-16 02:29N 40°37' E 013°36'47316.9
2018-Apr-14 22:32N 40°26' E 003°14'116.7
2018-Apr-14 22:29N 40°26' E 003°13'816.5
2018-Apr-14 21:59N 40°24' E 003°02'1116.3
2018-Apr-14 21:20N 40°22' E 002°48'516.4
2018-Apr-14 21:00N 40°20' E 002°41'  

Dump ship's entire track history